sensor_id;sensor_type;location;lat;lon;timestamp;P1;durP1;ratioP1;P2;durP2;ratioP2
7383;SDS011;3733;47.994;8.820;2023-03-31T00:00:18;13.30;;;6.33;;
7383;SDS011;3733;47.994;8.820;2023-03-31T00:02:44;13.50;;;5.53;;
7383;SDS011;3733;47.994;8.820;2023-03-31T00:05:11;10.70;;;4.80;;
7383;SDS011;3733;47.994;8.820;2023-03-31T00:07:41;9.80;;;5.50;;
7383;SDS011;3733;47.994;8.820;2023-03-31T00:10:08;12.73;;;6.60;;
7383;SDS011;3733;47.994;8.820;2023-03-31T00:12:34;10.93;;;4.97;;
7383;SDS011;3733;47.994;8.820;2023-03-31T00:15:00;12.23;;;5.50;;
7383;SDS011;3733;47.994;8.820;2023-03-31T00:17:26;9.10;;;5.20;;
7383;SDS011;3733;47.994;8.820;2023-03-31T00:19:51;13.00;;;5.60;;
7383;SDS011;3733;47.994;8.820;2023-03-31T00:22:17;13.03;;;6.17;;
7383;SDS011;3733;47.994;8.820;2023-03-31T00:24:46;8.27;;;5.40;;
7383;SDS011;3733;47.994;8.820;2023-03-31T00:27:12;12.83;;;5.97;;
7383;SDS011;3733;47.994;8.820;2023-03-31T00:29:38;8.90;;;5.33;;
7383;SDS011;3733;47.994;8.820;2023-03-31T00:32:05;10.93;;;5.90;;
7383;SDS011;3733;47.994;8.820;2023-03-31T00:34:32;8.97;;;5.07;;
7383;SDS011;3733;47.994;8.820;2023-03-31T00:36:58;7.13;;;4.93;;
7383;SDS011;3733;47.994;8.820;2023-03-31T00:39:26;11.20;;;5.40;;
7383;SDS011;3733;47.994;8.820;2023-03-31T00:41:57;9.53;;;5.80;;
7383;SDS011;3733;47.994;8.820;2023-03-31T00:44:23;10.10;;;4.90;;
7383;SDS011;3733;47.994;8.820;2023-03-31T00:49:20;9.70;;;5.10;;
7383;SDS011;3733;47.994;8.820;2023-03-31T00:52:11;10.33;;;5.07;;
7383;SDS011;3733;47.994;8.820;2023-03-31T00:55:08;6.97;;;5.20;;
7383;SDS011;3733;47.994;8.820;2023-03-31T00:57:40;8.00;;;4.60;;
7383;SDS011;3733;47.994;8.820;2023-03-31T01:00:08;14.33;;;5.20;;
7383;SDS011;3733;47.994;8.820;2023-03-31T01:02:42;6.20;;;4.90;;
7383;SDS011;3733;47.994;8.820;2023-03-31T01:05:23;8.00;;;4.63;;
7383;SDS011;3733;47.994;8.820;2023-03-31T01:07:55;11.97;;;4.90;;
7383;SDS011;3733;47.994;8.820;2023-03-31T01:10:23;6.77;;;4.47;;
7383;SDS011;3733;47.994;8.820;2023-03-31T01:12:50;11.37;;;5.27;;
7383;SDS011;3733;47.994;8.820;2023-03-31T01:15:18;7.77;;;5.20;;
7383;SDS011;3733;47.994;8.820;2023-03-31T01:17:44;11.37;;;4.60;;
7383;SDS011;3733;47.994;8.820;2023-03-31T01:28:37;11.47;;;5.63;;
7383;SDS011;3733;47.994;8.820;2023-03-31T01:36:15;10.67;;;5.40;;
7383;SDS011;3733;47.994;8.820;2023-03-31T01:47:23;14.07;;;5.07;;
7383;SDS011;3733;47.994;8.820;2023-03-31T01:50:05;15.90;;;6.33;;
7383;SDS011;3733;47.994;8.820;2023-03-31T02:00:47;10.47;;;5.63;;
7383;SDS011;3733;47.994;8.820;2023-03-31T02:03:21;14.77;;;5.93;;
7383;SDS011;3733;47.994;8.820;2023-03-31T02:05:52;14.13;;;5.33;;
7383;SDS011;3733;47.994;8.820;2023-03-31T02:08:34;12.80;;;5.63;;
7383;SDS011;3733;47.994;8.820;2023-03-31T02:11:04;12.43;;;5.10;;
7383;SDS011;3733;47.994;8.820;2023-03-31T02:13:30;13.23;;;6.50;;
7383;SDS011;3733;47.994;8.820;2023-03-31T02:15:59;16.27;;;6.37;;
7383;SDS011;3733;47.994;8.820;2023-03-31T02:18:29;6.87;;;5.17;;
7383;SDS011;3733;47.994;8.820;2023-03-31T02:20:57;6.93;;;4.67;;
7383;SDS011;3733;47.994;8.820;2023-03-31T02:23:25;9.73;;;5.60;;
7383;SDS011;3733;47.994;8.820;2023-03-31T02:28:27;8.23;;;5.37;;
7383;SDS011;3733;47.994;8.820;2023-03-31T02:33:19;12.03;;;6.67;;
7383;SDS011;3733;47.994;8.820;2023-03-31T02:35:45;8.80;;;6.07;;
7383;SDS011;3733;47.994;8.820;2023-03-31T02:38:10;14.93;;;6.73;;
7383;SDS011;3733;47.994;8.820;2023-03-31T02:40:36;12.37;;;6.27;;
7383;SDS011;3733;47.994;8.820;2023-03-31T02:43:02;12.17;;;6.33;;
7383;SDS011;3733;47.994;8.820;2023-03-31T02:50:49;15.30;;;6.60;;
7383;SDS011;3733;47.994;8.820;2023-03-31T02:56:24;10.33;;;6.07;;
7383;SDS011;3733;47.994;8.820;2023-03-31T03:07:10;27.93;;;13.13;;
7383;SDS011;3733;47.994;8.820;2023-03-31T03:10:12;19.43;;;9.37;;
7383;SDS011;3733;47.994;8.820;2023-03-31T03:18:01;12.00;;;7.33;;
7383;SDS011;3733;47.994;8.820;2023-03-31T03:20:29;14.37;;;6.30;;
7383;SDS011;3733;47.994;8.820;2023-03-31T03:22:57;11.83;;;6.80;;
7383;SDS011;3733;47.994;8.820;2023-03-31T03:25:24;13.37;;;7.40;;
7383;SDS011;3733;47.994;8.820;2023-03-31T03:27:50;13.53;;;7.10;;
7383;SDS011;3733;47.994;8.820;2023-03-31T03:30:17;12.03;;;6.53;;
7383;SDS011;3733;47.994;8.820;2023-03-31T03:32:43;11.10;;;6.23;;
7383;SDS011;3733;47.994;8.820;2023-03-31T03:35:09;13.40;;;6.43;;
7383;SDS011;3733;47.994;8.820;2023-03-31T03:37:35;20.30;;;6.77;;
7383;SDS011;3733;47.994;8.820;2023-03-31T03:40:00;12.37;;;6.97;;
7383;SDS011;3733;47.994;8.820;2023-03-31T03:42:26;10.20;;;7.20;;
7383;SDS011;3733;47.994;8.820;2023-03-31T03:44:52;11.57;;;7.23;;
7383;SDS011;3733;47.994;8.820;2023-03-31T03:47:17;9.53;;;6.37;;
7383;SDS011;3733;47.994;8.820;2023-03-31T03:49:43;10.60;;;7.20;;
7383;SDS011;3733;47.994;8.820;2023-03-31T03:52:09;9.73;;;6.83;;
7383;SDS011;3733;47.994;8.820;2023-03-31T03:54:34;15.80;;;7.30;;
7383;SDS011;3733;47.994;8.820;2023-03-31T03:57:00;10.20;;;6.87;;
7383;SDS011;3733;47.994;8.820;2023-03-31T03:59:26;10.83;;;5.80;;
7383;SDS011;3733;47.994;8.820;2023-03-31T04:01:51;10.20;;;7.00;;
7383;SDS011;3733;47.994;8.820;2023-03-31T04:04:17;15.70;;;7.70;;
7383;SDS011;3733;47.994;8.820;2023-03-31T04:06:45;10.23;;;6.40;;
7383;SDS011;3733;47.994;8.820;2023-03-31T04:09:11;10.23;;;7.57;;
7383;SDS011;3733;47.994;8.820;2023-03-31T04:11:36;20.10;;;10.67;;
7383;SDS011;3733;47.994;8.820;2023-03-31T04:14:02;16.73;;;10.67;;
7383;SDS011;3733;47.994;8.820;2023-03-31T04:16:28;18.13;;;9.43;;
7383;SDS011;3733;47.994;8.820;2023-03-31T04:18:54;12.80;;;8.87;;
7383;SDS011;3733;47.994;8.820;2023-03-31T04:21:23;16.23;;;8.80;;
7383;SDS011;3733;47.994;8.820;2023-03-31T04:23:50;16.00;;;9.80;;
7383;SDS011;3733;47.994;8.820;2023-03-31T04:26:23;15.67;;;9.17;;
7383;SDS011;3733;47.994;8.820;2023-03-31T04:29:03;13.10;;;8.23;;
7383;SDS011;3733;47.994;8.820;2023-03-31T04:31:31;18.03;;;7.67;;
7383;SDS011;3733;47.994;8.820;2023-03-31T04:33:57;20.03;;;8.40;;
7383;SDS011;3733;47.994;8.820;2023-03-31T04:36:30;17.03;;;7.93;;
7383;SDS011;3733;47.994;8.820;2023-03-31T04:38:57;24.63;;;9.20;;
7383;SDS011;3733;47.994;8.820;2023-03-31T04:41:23;18.10;;;9.00;;
7383;SDS011;3733;47.994;8.820;2023-03-31T04:43:51;22.93;;;9.20;;
7383;SDS011;3733;47.994;8.820;2023-03-31T04:46:17;20.20;;;9.63;;
7383;SDS011;3733;47.994;8.820;2023-03-31T04:48:44;18.60;;;9.43;;
7383;SDS011;3733;47.994;8.820;2023-03-31T04:51:10;20.80;;;9.60;;
7383;SDS011;3733;47.994;8.820;2023-03-31T04:53:39;15.93;;;10.20;;
7383;SDS011;3733;47.994;8.820;2023-03-31T04:56:05;20.10;;;9.90;;
7383;SDS011;3733;47.994;8.820;2023-03-31T04:58:31;13.30;;;9.73;;
7383;SDS011;3733;47.994;8.820;2023-03-31T05:00:57;17.00;;;7.90;;
7383;SDS011;3733;47.994;8.820;2023-03-31T05:03:23;16.27;;;8.80;;
7383;SDS011;3733;47.994;8.820;2023-03-31T05:05:49;14.70;;;8.10;;
7383;SDS011;3733;47.994;8.820;2023-03-31T05:08:14;17.97;;;8.70;;
7383;SDS011;3733;47.994;8.820;2023-03-31T05:10:40;18.40;;;8.97;;
7383;SDS011;3733;47.994;8.820;2023-03-31T05:13:08;11.50;;;8.50;;
7383;SDS011;3733;47.994;8.820;2023-03-31T05:15:36;15.60;;;9.00;;
7383;SDS011;3733;47.994;8.820;2023-03-31T05:18:03;16.70;;;7.30;;
7383;SDS011;3733;47.994;8.820;2023-03-31T05:20:29;12.70;;;8.20;;
7383;SDS011;3733;47.994;8.820;2023-03-31T05:22:54;11.57;;;8.00;;
7383;SDS011;3733;47.994;8.820;2023-03-31T05:25:20;13.73;;;6.33;;
7383;SDS011;3733;47.994;8.820;2023-03-31T05:27:47;9.17;;;6.00;;
7383;SDS011;3733;47.994;8.820;2023-03-31T05:30:14;11.77;;;6.50;;
7383;SDS011;3733;47.994;8.820;2023-03-31T05:32:40;13.67;;;7.43;;
7383;SDS011;3733;47.994;8.820;2023-03-31T05:35:05;13.13;;;6.63;;
7383;SDS011;3733;47.994;8.820;2023-03-31T05:37:32;13.70;;;6.60;;
7383;SDS011;3733;47.994;8.820;2023-03-31T05:39:57;16.30;;;7.83;;
7383;SDS011;3733;47.994;8.820;2023-03-31T05:42:23;9.60;;;7.30;;
7383;SDS011;3733;47.994;8.820;2023-03-31T05:44:48;15.70;;;7.60;;
7383;SDS011;3733;47.994;8.820;2023-03-31T05:47:15;16.30;;;8.43;;
7383;SDS011;3733;47.994;8.820;2023-03-31T05:49:41;18.53;;;8.47;;
7383;SDS011;3733;47.994;8.820;2023-03-31T05:52:08;14.87;;;7.70;;
7383;SDS011;3733;47.994;8.820;2023-03-31T05:54:34;19.73;;;10.13;;
7383;SDS011;3733;47.994;8.820;2023-03-31T05:57:00;14.20;;;8.63;;
7383;SDS011;3733;47.994;8.820;2023-03-31T05:59:26;15.23;;;7.60;;
7383;SDS011;3733;47.994;8.820;2023-03-31T06:01:51;16.90;;;7.80;;
7383;SDS011;3733;47.994;8.820;2023-03-31T06:04:17;13.00;;;7.97;;
7383;SDS011;3733;47.994;8.820;2023-03-31T06:06:43;12.73;;;7.23;;
7383;SDS011;3733;47.994;8.820;2023-03-31T06:09:10;13.10;;;8.20;;
7383;SDS011;3733;47.994;8.820;2023-03-31T06:11:38;13.20;;;7.93;;
7383;SDS011;3733;47.994;8.820;2023-03-31T06:14:04;14.73;;;8.33;;
7383;SDS011;3733;47.994;8.820;2023-03-31T06:16:30;13.80;;;8.17;;
7383;SDS011;3733;47.994;8.820;2023-03-31T06:18:55;11.90;;;8.40;;
7383;SDS011;3733;47.994;8.820;2023-03-31T06:21:21;19.33;;;10.50;;
7383;SDS011;3733;47.994;8.820;2023-03-31T06:23:47;12.97;;;8.77;;
7383;SDS011;3733;47.994;8.820;2023-03-31T06:26:15;16.70;;;8.70;;
7383;SDS011;3733;47.994;8.820;2023-03-31T06:28:42;11.23;;;7.20;;
7383;SDS011;3733;47.994;8.820;2023-03-31T06:31:10;11.70;;;7.47;;
7383;SDS011;3733;47.994;8.820;2023-03-31T06:33:43;11.40;;;7.97;;
7383;SDS011;3733;47.994;8.820;2023-03-31T06:36:09;13.13;;;8.50;;
7383;SDS011;3733;47.994;8.820;2023-03-31T06:38:37;13.00;;;7.80;;
7383;SDS011;3733;47.994;8.820;2023-03-31T06:41:04;11.20;;;8.00;;
7383;SDS011;3733;47.994;8.820;2023-03-31T06:43:30;19.23;;;9.10;;
7383;SDS011;3733;47.994;8.820;2023-03-31T06:45:56;15.33;;;9.90;;
7383;SDS011;3733;47.994;8.820;2023-03-31T06:48:22;13.37;;;9.53;;
7383;SDS011;3733;47.994;8.820;2023-03-31T06:50:49;20.60;;;9.40;;
7383;SDS011;3733;47.994;8.820;2023-03-31T06:53:14;11.13;;;7.97;;
7383;SDS011;3733;47.994;8.820;2023-03-31T06:55:40;16.87;;;7.80;;
7383;SDS011;3733;47.994;8.820;2023-03-31T06:58:05;13.07;;;6.97;;
7383;SDS011;3733;47.994;8.820;2023-03-31T07:00:32;11.77;;;6.13;;
7383;SDS011;3733;47.994;8.820;2023-03-31T07:02:58;8.83;;;4.07;;
7383;SDS011;3733;47.994;8.820;2023-03-31T07:05:23;5.43;;;2.70;;
7383;SDS011;3733;47.994;8.820;2023-03-31T07:07:56;8.07;;;2.43;;
7383;SDS011;3733;47.994;8.820;2023-03-31T07:10:23;4.30;;;2.20;;
7383;SDS011;3733;47.994;8.820;2023-03-31T07:12:50;5.13;;;1.90;;
7383;SDS011;3733;47.994;8.820;2023-03-31T07:15:15;1.80;;;1.70;;
7383;SDS011;3733;47.994;8.820;2023-03-31T07:17:41;2.03;;;1.33;;
7383;SDS011;3733;47.994;8.820;2023-03-31T07:20:11;1.40;;;1.30;;
7383;SDS011;3733;47.994;8.820;2023-03-31T07:22:41;2.80;;;1.50;;
7383;SDS011;3733;47.994;8.820;2023-03-31T07:25:09;1.30;;;1.20;;
7383;SDS011;3733;47.994;8.820;2023-03-31T07:27:36;1.20;;;1.20;;
7383;SDS011;3733;47.994;8.820;2023-03-31T07:30:05;1.43;;;1.33;;
7383;SDS011;3733;47.994;8.820;2023-03-31T07:32:33;2.30;;;1.53;;
7383;SDS011;3733;47.994;8.820;2023-03-31T07:35:03;1.87;;;1.20;;
7383;SDS011;3733;47.994;8.820;2023-03-31T07:37:33;1.50;;;1.40;;
7383;SDS011;3733;47.994;8.820;2023-03-31T07:40:10;4.63;;;1.53;;
7383;SDS011;3733;47.994;8.820;2023-03-31T07:42:39;1.37;;;1.23;;
7383;SDS011;3733;47.994;8.820;2023-03-31T07:45:06;1.23;;;1.13;;
7383;SDS011;3733;47.994;8.820;2023-03-31T07:47:32;1.63;;;1.53;;
7383;SDS011;3733;47.994;8.820;2023-03-31T07:49:58;1.47;;;1.37;;
7383;SDS011;3733;47.994;8.820;2023-03-31T07:52:24;1.90;;;1.73;;
7383;SDS011;3733;47.994;8.820;2023-03-31T07:54:50;2.07;;;1.50;;
7383;SDS011;3733;47.994;8.820;2023-03-31T07:57:15;6.23;;;1.57;;
7383;SDS011;3733;47.994;8.820;2023-03-31T07:59:43;1.50;;;1.33;;
7383;SDS011;3733;47.994;8.820;2023-03-31T08:02:12;3.90;;;1.63;;
7383;SDS011;3733;47.994;8.820;2023-03-31T08:04:39;1.80;;;1.30;;
7383;SDS011;3733;47.994;8.820;2023-03-31T08:07:08;4.47;;;1.67;;
7383;SDS011;3733;47.994;8.820;2023-03-31T08:09:38;4.83;;;1.80;;
7383;SDS011;3733;47.994;8.820;2023-03-31T08:12:05;4.30;;;1.77;;
7383;SDS011;3733;47.994;8.820;2023-03-31T08:14:31;2.13;;;1.70;;
7383;SDS011;3733;47.994;8.820;2023-03-31T08:16:57;1.70;;;1.40;;
7383;SDS011;3733;47.994;8.820;2023-03-31T08:19:24;3.10;;;1.53;;
7383;SDS011;3733;47.994;8.820;2023-03-31T08:21:51;6.03;;;1.90;;
7383;SDS011;3733;47.994;8.820;2023-03-31T08:24:17;7.83;;;1.90;;
7383;SDS011;3733;47.994;8.820;2023-03-31T08:26:42;3.63;;;1.90;;
7383;SDS011;3733;47.994;8.820;2023-03-31T08:29:08;7.20;;;2.07;;
7383;SDS011;3733;47.994;8.820;2023-03-31T08:31:34;8.43;;;2.00;;
7383;SDS011;3733;47.994;8.820;2023-03-31T08:33:59;3.10;;;1.87;;
7383;SDS011;3733;47.994;8.820;2023-03-31T08:36:27;3.47;;;2.00;;
7383;SDS011;3733;47.994;8.820;2023-03-31T08:38:53;2.33;;;2.10;;
7383;SDS011;3733;47.994;8.820;2023-03-31T08:46:50;3.07;;;1.90;;
7383;SDS011;3733;47.994;8.820;2023-03-31T08:49:18;4.60;;;2.20;;
7383;SDS011;3733;47.994;8.820;2023-03-31T08:51:53;3.60;;;1.60;;
7383;SDS011;3733;47.994;8.820;2023-03-31T08:54:32;5.70;;;1.80;;
7383;SDS011;3733;47.994;8.820;2023-03-31T08:57:02;3.00;;;2.13;;
7383;SDS011;3733;47.994;8.820;2023-03-31T08:59:33;4.27;;;1.73;;
7383;SDS011;3733;47.994;8.820;2023-03-31T09:15:27;30.53;;;2.27;;
7383;SDS011;3733;47.994;8.820;2023-03-31T09:18:26;3.50;;;1.70;;
7383;SDS011;3733;47.994;8.820;2023-03-31T09:26:54;4.40;;;2.23;;
7383;SDS011;3733;47.994;8.820;2023-03-31T09:32:00;4.43;;;1.60;;
7383;SDS011;3733;47.994;8.820;2023-03-31T09:34:31;6.43;;;1.60;;
7383;SDS011;3733;47.994;8.820;2023-03-31T09:36:58;3.43;;;1.37;;
7383;SDS011;3733;47.994;8.820;2023-03-31T09:39:24;3.47;;;1.77;;
7383;SDS011;3733;47.994;8.820;2023-03-31T09:41:52;3.13;;;1.73;;
7383;SDS011;3733;47.994;8.820;2023-03-31T09:44:25;4.07;;;1.50;;
7383;SDS011;3733;47.994;8.820;2023-03-31T09:46:54;10.53;;;1.50;;
7383;SDS011;3733;47.994;8.820;2023-03-31T09:49:22;5.07;;;1.63;;
7383;SDS011;3733;47.994;8.820;2023-03-31T09:51:57;4.13;;;1.60;;
7383;SDS011;3733;47.994;8.820;2023-03-31T09:54:37;3.60;;;1.50;;
7383;SDS011;3733;47.994;8.820;2023-03-31T10:00:04;5.27;;;1.50;;
7383;SDS011;3733;47.994;8.820;2023-03-31T10:02:38;5.73;;;1.73;;
7383;SDS011;3733;47.994;8.820;2023-03-31T10:05:35;5.00;;;2.00;;
7383;SDS011;3733;47.994;8.820;2023-03-31T10:10:55;8.23;;;3.33;;
7383;SDS011;3733;47.994;8.820;2023-03-31T10:13:36;5.30;;;2.13;;
7383;SDS011;3733;47.994;8.820;2023-03-31T10:16:53;2.60;;;1.97;;
7383;SDS011;3733;47.994;8.820;2023-03-31T10:19:12;9.77;;;1.70;;
7383;SDS011;3733;47.994;8.820;2023-03-31T10:21:58;3.07;;;1.40;;
7383;SDS011;3733;47.994;8.820;2023-03-31T10:24:34;2.83;;;1.23;;
7383;SDS011;3733;47.994;8.820;2023-03-31T10:27:04;3.50;;;1.70;;
7383;SDS011;3733;47.994;8.820;2023-03-31T10:29:37;4.17;;;1.70;;
7383;SDS011;3733;47.994;8.820;2023-03-31T10:32:04;3.90;;;1.70;;
7383;SDS011;3733;47.994;8.820;2023-03-31T10:34:40;5.50;;;2.13;;
7383;SDS011;3733;47.994;8.820;2023-03-31T10:37:06;3.57;;;1.60;;
7383;SDS011;3733;47.994;8.820;2023-03-31T10:39:38;5.87;;;1.50;;
7383;SDS011;3733;47.994;8.820;2023-03-31T10:42:03;5.87;;;1.20;;
7383;SDS011;3733;47.994;8.820;2023-03-31T10:44:33;5.23;;;1.50;;
7383;SDS011;3733;47.994;8.820;2023-03-31T10:47:18;3.23;;;1.50;;
7383;SDS011;3733;47.994;8.820;2023-03-31T10:49:47;5.60;;;1.70;;
7383;SDS011;3733;47.994;8.820;2023-03-31T10:52:16;4.70;;;2.83;;
7383;SDS011;3733;47.994;8.820;2023-03-31T10:54:47;4.87;;;1.97;;
7383;SDS011;3733;47.994;8.820;2023-03-31T10:57:15;5.40;;;1.63;;
7383;SDS011;3733;47.994;8.820;2023-03-31T11:05:37;4.93;;;1.60;;
7383;SDS011;3733;47.994;8.820;2023-03-31T11:11:24;4.27;;;1.60;;
7383;SDS011;3733;47.994;8.820;2023-03-31T11:22:04;3.33;;;1.60;;
7383;SDS011;3733;47.994;8.820;2023-03-31T11:41:18;2.27;;;1.40;;
7383;SDS011;3733;47.994;8.820;2023-03-31T11:43:53;4.80;;;1.40;;
7383;SDS011;3733;47.994;8.820;2023-03-31T11:52:00;4.37;;;1.50;;
7383;SDS011;3733;47.994;8.820;2023-03-31T11:57:22;3.53;;;1.37;;
7383;SDS011;3733;47.994;8.820;2023-03-31T11:59:59;2.27;;;1.30;;
7383;SDS011;3733;47.994;8.820;2023-03-31T12:05:38;8.83;;;2.10;;
7383;SDS011;3733;47.994;8.820;2023-03-31T12:08:25;4.60;;;1.50;;
7383;SDS011;3733;47.994;8.820;2023-03-31T12:11:04;4.87;;;1.50;;
7383;SDS011;3733;47.994;8.820;2023-03-31T12:13:46;6.07;;;1.47;;
7383;SDS011;3733;47.994;8.820;2023-03-31T12:16:34;3.43;;;1.63;;
7383;SDS011;3733;47.994;8.820;2023-03-31T12:19:10;7.63;;;1.90;;
7383;SDS011;3733;47.994;8.820;2023-03-31T12:21:57;6.00;;;1.80;;
7383;SDS011;3733;47.994;8.820;2023-03-31T12:24:32;7.70;;;1.50;;
7383;SDS011;3733;47.994;8.820;2023-03-31T12:27:05;3.90;;;1.80;;
7383;SDS011;3733;47.994;8.820;2023-03-31T12:32:40;3.57;;;1.60;;
7383;SDS011;3733;47.994;8.820;2023-03-31T12:35:34;7.57;;;1.53;;
7383;SDS011;3733;47.994;8.820;2023-03-31T12:38:08;4.53;;;1.23;;
7383;SDS011;3733;47.994;8.820;2023-03-31T12:56:21;11.30;;;1.67;;
7383;SDS011;3733;47.994;8.820;2023-03-31T12:58:46;1.57;;;1.30;;
7383;SDS011;3733;47.994;8.820;2023-03-31T13:01:13;2.73;;;1.90;;
7383;SDS011;3733;47.994;8.820;2023-03-31T13:11:21;2.37;;;1.23;;
7383;SDS011;3733;47.994;8.820;2023-03-31T13:16:37;7.03;;;1.30;;
7383;SDS011;3733;47.994;8.820;2023-03-31T13:19:03;2.90;;;1.30;;
7383;SDS011;3733;47.994;8.820;2023-03-31T13:21:29;1.47;;;1.00;;
7383;SDS011;3733;47.994;8.820;2023-03-31T13:23:59;3.93;;;1.07;;
7383;SDS011;3733;47.994;8.820;2023-03-31T13:29:17;2.00;;;1.10;;
7383;SDS011;3733;47.994;8.820;2023-03-31T13:39:58;1.90;;;1.10;;
7383;SDS011;3733;47.994;8.820;2023-03-31T13:43:35;10.70;;;2.50;;
7383;SDS011;3733;47.994;8.820;2023-03-31T13:51:28;5.03;;;1.27;;
7383;SDS011;3733;47.994;8.820;2023-03-31T14:02:56;2.63;;;1.37;;
7383;SDS011;3733;47.994;8.820;2023-03-31T14:05:53;7.20;;;1.30;;
7383;SDS011;3733;47.994;8.820;2023-03-31T14:11:16;5.37;;;2.00;;
7383;SDS011;3733;47.994;8.820;2023-03-31T14:16:38;3.60;;;1.30;;
7383;SDS011;3733;47.994;8.820;2023-03-31T14:30:34;6.10;;;1.93;;
7383;SDS011;3733;47.994;8.820;2023-03-31T14:35:45;4.50;;;1.60;;
7383;SDS011;3733;47.994;8.820;2023-03-31T14:38:20;2.03;;;1.10;;
7383;SDS011;3733;47.994;8.820;2023-03-31T14:40:48;1.83;;;1.03;;
7383;SDS011;3733;47.994;8.820;2023-03-31T14:43:21;1.27;;;1.00;;
7383;SDS011;3733;47.994;8.820;2023-03-31T14:46:03;1.10;;;1.00;;
7383;SDS011;3733;47.994;8.820;2023-03-31T14:48:34;3.13;;;1.20;;
7383;SDS011;3733;47.994;8.820;2023-03-31T14:51:09;0.83;;;0.83;;
7383;SDS011;3733;47.994;8.820;2023-03-31T14:53:36;2.83;;;1.20;;
7383;SDS011;3733;47.994;8.820;2023-03-31T14:56:03;1.70;;;1.33;;
7383;SDS011;3733;47.994;8.820;2023-03-31T14:58:33;1.57;;;0.80;;
7383;SDS011;3733;47.994;8.820;2023-03-31T15:01:13;2.03;;;1.10;;
7383;SDS011;3733;47.994;8.820;2023-03-31T15:03:41;1.53;;;1.03;;
7383;SDS011;3733;47.994;8.820;2023-03-31T15:06:07;1.30;;;1.20;;
7383;SDS011;3733;47.994;8.820;2023-03-31T15:08:34;1.10;;;1.00;;
7383;SDS011;3733;47.994;8.820;2023-03-31T15:11:05;6.47;;;1.30;;
7383;SDS011;3733;47.994;8.820;2023-03-31T15:13:34;4.00;;;1.10;;
7383;SDS011;3733;47.994;8.820;2023-03-31T15:18:55;1.17;;;1.10;;
7383;SDS011;3733;47.994;8.820;2023-03-31T15:21:23;3.83;;;2.13;;
7383;SDS011;3733;47.994;8.820;2023-03-31T15:23:51;2.13;;;1.30;;
7383;SDS011;3733;47.994;8.820;2023-03-31T15:26:20;2.00;;;1.20;;
7383;SDS011;3733;47.994;8.820;2023-03-31T15:28:57;3.30;;;1.03;;
7383;SDS011;3733;47.994;8.820;2023-03-31T15:31:29;1.30;;;1.20;;
7383;SDS011;3733;47.994;8.820;2023-03-31T15:33:56;1.27;;;1.17;;
7383;SDS011;3733;47.994;8.820;2023-03-31T15:36:21;1.37;;;1.10;;
7383;SDS011;3733;47.994;8.820;2023-03-31T15:38:53;1.20;;;1.10;;
7383;SDS011;3733;47.994;8.820;2023-03-31T15:41:21;2.10;;;1.20;;
7383;SDS011;3733;47.994;8.820;2023-03-31T15:43:47;1.63;;;1.53;;
7383;SDS011;3733;47.994;8.820;2023-03-31T15:49:20;1.40;;;1.17;;
7383;SDS011;3733;47.994;8.820;2023-03-31T15:51:48;1.30;;;1.20;;
7383;SDS011;3733;47.994;8.820;2023-03-31T15:57:11;3.93;;;1.20;;
7383;SDS011;3733;47.994;8.820;2023-03-31T15:59:42;5.77;;;1.53;;
7383;SDS011;3733;47.994;8.820;2023-03-31T16:02:18;3.27;;;1.40;;
7383;SDS011;3733;47.994;8.820;2023-03-31T16:04:47;3.03;;;1.13;;
7383;SDS011;3733;47.994;8.820;2023-03-31T16:07:17;1.67;;;1.10;;
7383;SDS011;3733;47.994;8.820;2023-03-31T16:09:53;3.20;;;1.27;;
7383;SDS011;3733;47.994;8.820;2023-03-31T16:12:36;5.30;;;1.47;;
7383;SDS011;3733;47.994;8.820;2023-03-31T16:15:29;2.70;;;1.27;;
7383;SDS011;3733;47.994;8.820;2023-03-31T16:18:22;2.30;;;1.67;;
7383;SDS011;3733;47.994;8.820;2023-03-31T16:20:53;2.63;;;1.40;;
7383;SDS011;3733;47.994;8.820;2023-03-31T16:23:22;3.73;;;1.53;;
7383;SDS011;3733;47.994;8.820;2023-03-31T16:25:51;2.70;;;1.40;;
7383;SDS011;3733;47.994;8.820;2023-03-31T16:28:28;3.37;;;1.30;;
7383;SDS011;3733;47.994;8.820;2023-03-31T16:30:56;2.00;;;1.37;;
7383;SDS011;3733;47.994;8.820;2023-03-31T16:33:26;2.83;;;1.50;;
7383;SDS011;3733;47.994;8.820;2023-03-31T16:35:54;5.50;;;1.40;;
7383;SDS011;3733;47.994;8.820;2023-03-31T16:38:27;1.87;;;1.37;;
7383;SDS011;3733;47.994;8.820;2023-03-31T16:40:54;3.57;;;1.50;;
7383;SDS011;3733;47.994;8.820;2023-03-31T16:43:25;1.70;;;1.30;;
7383;SDS011;3733;47.994;8.820;2023-03-31T16:45:56;1.47;;;1.00;;
7383;SDS011;3733;47.994;8.820;2023-03-31T16:48:25;1.83;;;1.20;;
7383;SDS011;3733;47.994;8.820;2023-03-31T16:50:53;2.57;;;1.50;;
7383;SDS011;3733;47.994;8.820;2023-03-31T16:53:23;4.43;;;1.50;;
7383;SDS011;3733;47.994;8.820;2023-03-31T16:55:51;2.00;;;1.50;;
7383;SDS011;3733;47.994;8.820;2023-03-31T16:58:18;6.83;;;1.43;;
7383;SDS011;3733;47.994;8.820;2023-03-31T17:00:43;1.40;;;1.30;;
7383;SDS011;3733;47.994;8.820;2023-03-31T17:03:10;2.90;;;1.50;;
7383;SDS011;3733;47.994;8.820;2023-03-31T17:05:44;11.73;;;6.77;;
7383;SDS011;3733;47.994;8.820;2023-03-31T17:08:12;2.80;;;1.70;;
7383;SDS011;3733;47.994;8.820;2023-03-31T17:10:38;2.20;;;1.67;;
7383;SDS011;3733;47.994;8.820;2023-03-31T17:13:05;3.97;;;1.93;;
7383;SDS011;3733;47.994;8.820;2023-03-31T17:15:32;4.37;;;1.47;;
7383;SDS011;3733;47.994;8.820;2023-03-31T17:18:00;4.10;;;1.80;;
7383;SDS011;3733;47.994;8.820;2023-03-31T17:20:27;2.60;;;1.83;;
7383;SDS011;3733;47.994;8.820;2023-03-31T17:22:53;5.03;;;1.93;;
7383;SDS011;3733;47.994;8.820;2023-03-31T17:25:18;6.10;;;1.80;;
7383;SDS011;3733;47.994;8.820;2023-03-31T17:27:45;6.33;;;2.20;;
7383;SDS011;3733;47.994;8.820;2023-03-31T17:30:11;4.07;;;2.30;;
7383;SDS011;3733;47.994;8.820;2023-03-31T17:32:37;7.10;;;2.07;;
7383;SDS011;3733;47.994;8.820;2023-03-31T17:35:03;3.90;;;1.50;;
7383;SDS011;3733;47.994;8.820;2023-03-31T17:37:30;2.43;;;1.53;;
7383;SDS011;3733;47.994;8.820;2023-03-31T17:39:57;6.50;;;3.40;;
7383;SDS011;3733;47.994;8.820;2023-03-31T17:42:23;5.93;;;2.50;;
7383;SDS011;3733;47.994;8.820;2023-03-31T17:44:49;5.27;;;2.47;;
7383;SDS011;3733;47.994;8.820;2023-03-31T17:47:16;4.53;;;2.27;;
7383;SDS011;3733;47.994;8.820;2023-03-31T17:49:43;4.33;;;1.60;;
7383;SDS011;3733;47.994;8.820;2023-03-31T17:52:08;3.50;;;1.80;;
7383;SDS011;3733;47.994;8.820;2023-03-31T17:54:34;6.70;;;2.03;;
7383;SDS011;3733;47.994;8.820;2023-03-31T17:57:00;5.37;;;3.07;;
7383;SDS011;3733;47.994;8.820;2023-03-31T17:59:27;4.20;;;2.70;;
7383;SDS011;3733;47.994;8.820;2023-03-31T18:01:53;4.33;;;2.00;;
7383;SDS011;3733;47.994;8.820;2023-03-31T18:04:19;5.70;;;2.20;;
7383;SDS011;3733;47.994;8.820;2023-03-31T18:06:44;6.33;;;2.00;;
7383;SDS011;3733;47.994;8.820;2023-03-31T18:09:12;3.53;;;1.93;;
7383;SDS011;3733;47.994;8.820;2023-03-31T18:11:38;5.50;;;1.60;;
7383;SDS011;3733;47.994;8.820;2023-03-31T18:14:04;12.20;;;3.07;;
7383;SDS011;3733;47.994;8.820;2023-03-31T18:16:33;3.50;;;2.30;;
7383;SDS011;3733;47.994;8.820;2023-03-31T18:18:59;11.40;;;2.23;;
7383;SDS011;3733;47.994;8.820;2023-03-31T18:21:25;6.10;;;2.23;;
7383;SDS011;3733;47.994;8.820;2023-03-31T18:23:51;8.07;;;2.20;;
7383;SDS011;3733;47.994;8.820;2023-03-31T18:26:19;8.00;;;2.13;;
7383;SDS011;3733;47.994;8.820;2023-03-31T18:28:46;5.80;;;1.80;;
7383;SDS011;3733;47.994;8.820;2023-03-31T18:31:12;4.83;;;1.87;;
7383;SDS011;3733;47.994;8.820;2023-03-31T18:33:38;4.50;;;2.00;;
7383;SDS011;3733;47.994;8.820;2023-03-31T18:36:05;4.73;;;1.83;;
7383;SDS011;3733;47.994;8.820;2023-03-31T18:38:32;7.30;;;2.10;;
7383;SDS011;3733;47.994;8.820;2023-03-31T18:40:58;12.10;;;2.97;;
7383;SDS011;3733;47.994;8.820;2023-03-31T18:43:24;7.60;;;2.60;;
7383;SDS011;3733;47.994;8.820;2023-03-31T18:45:51;5.53;;;2.53;;
7383;SDS011;3733;47.994;8.820;2023-03-31T18:48:18;4.80;;;2.60;;
7383;SDS011;3733;47.994;8.820;2023-03-31T18:50:48;9.50;;;3.10;;
7383;SDS011;3733;47.994;8.820;2023-03-31T18:53:15;5.87;;;2.33;;
7383;SDS011;3733;47.994;8.820;2023-03-31T18:55:42;6.20;;;2.70;;
7383;SDS011;3733;47.994;8.820;2023-03-31T18:58:08;5.47;;;2.33;;
7383;SDS011;3733;47.994;8.820;2023-03-31T19:00:34;7.33;;;1.93;;
7383;SDS011;3733;47.994;8.820;2023-03-31T19:03:00;10.50;;;2.27;;
7383;SDS011;3733;47.994;8.820;2023-03-31T19:05:25;5.40;;;2.43;;